Time;durP1;ratioP1;P1;durP2;ratioP2;P2;SDS_P1;SDS_P2;PMS_P1;PMS_P2;Temp;Humidity;BMP_temperature;BMP_pressure;BME280_temperature;BME280_humidity;BME280_pressure;Samples;Min_cycle;Max_cycle;Signal;HPM_P1;HPM_P2
2021/01/01 00:00:16;;;;;;;271.70;112.93;;;;;;;;;;5016261;28;20360;-59
2021/01/01 00:02:42;;;;;;;295.85;117.90;;;;;;;;;;5004569;28;20052;-59
2021/01/01 00:05:15;;;;;;;305.48;125.85;;;;;;;;;;5011840;28;20057;-59
2021/01/01 00:07:41;;;;;;;294.73;121.25;;;;;;;;;;5020928;28;20109;-59
2021/01/01 00:10:08;;;;;;;308.85;120.40;;;;;;;;;;5014478;28;20109;-59
2021/01/01 00:12:35;;;;;;;314.52;131.25;;;;;;;;;;5035275;28;20122;-59
2021/01/01 00:15:01;;;;;;;324.90;126.32;;;;;;;;;;5032219;28;20061;-58
2021/01/01 00:17:28;;;;;;;324.40;128.30;;;;;;;;;;5016431;28;20077;-59
2021/01/01 00:19:54;;;;;;;334.88;133.88;;;;;;;;;;5016035;28;20094;-59
2021/01/01 00:22:21;;;;;;;344.05;138.88;;;;;;;;;;5020545;28;20053;-58
2021/01/01 00:24:47;;;;;;;346.73;145.85;;;;;;;;;;5012409;28;20060;-59
2021/01/01 00:27:13;;;;;;;328.23;128.82;;;;;;;;;;5017317;28;20069;-59
2021/01/01 00:29:39;;;;;;;295.00;119.97;;;;;;;;;;5014312;28;20052;-59
2021/01/01 00:32:06;;;;;;;297.20;119.82;;;;;;;;;;5018475;28;20052;-60
2021/01/01 00:34:33;;;;;;;271.73;109.85;;;;;;;;;;5010023;28;20047;-60
2021/01/01 00:37:00;;;;;;;227.85;93.05;;;;;;;;;;5020733;28;20591;-59
2021/01/01 00:39:27;;;;;;;197.13;77.00;;;;;;;;;;5016845;28;20093;-58
2021/01/01 00:41:53;;;;;;;205.98;76.65;;;;;;;;;;5011881;28;20064;-59
2021/01/01 00:44:19;;;;;;;183.70;74.00;;;;;;;;;;5031299;28;20513;-59
2021/01/01 00:46:45;;;;;;;177.45;73.35;;;;;;;;;;5014445;28;20045;-59
2021/01/01 00:49:11;;;;;;;186.85;74.30;;;;;;;;;;5015266;28;20038;-59
2021/01/01 00:51:37;;;;;;;183.23;74.20;;;;;;;;;;5012144;28;20061;-59
2021/01/01 00:54:03;;;;;;;169.65;69.70;;;;;;;;;;5005285;28;20046;-59
2021/01/01 00:56:30;;;;;;;176.95;70.50;;;;;;;;;;5028701;28;20069;-59
2021/01/01 00:58:57;;;;;;;197.98;79.20;;;;;;;;;;5024758;28;20041;-60
2021/01/01 01:01:24;;;;;;;200.27;76.68;;;;;;;;;;5019795;28;20349;-59
2021/01/01 01:03:50;;;;;;;196.45;80.10;;;;;;;;;;5021993;28;20034;-59
2021/01/01 01:06:17;;;;;;;184.68;74.53;;;;;;;;;;5033019;28;20180;-59
2021/01/01 01:08:43;;;;;;;203.55;77.63;;;;;;;;;;5022200;28;20053;-59
2021/01/01 01:11:09;;;;;;;207.18;77.32;;;;;;;;;;5018183;28;20083;-59
2021/01/01 01:13:36;;;;;;;200.40;79.80;;;;;;;;;;5021412;28;20046;-60
2021/01/01 01:16:02;;;;;;;219.35;89.68;;;;;;;;;;5021238;28;20049;-60
2021/01/01 01:18:28;;;;;;;221.57;89.50;;;;;;;;;;4999363;28;20050;-60
2021/01/01 01:20:54;;;;;;;243.45;97.07;;;;;;;;;;5000283;28;20525;-59
2021/01/01 01:23:21;;;;;;;245.38;93.63;;;;;;;;;;4999183;28;20046;-59
2021/01/01 01:25:48;;;;;;;237.43;95.68;;;;;;;;;;5001779;28;20054;-59
2021/01/01 01:28:14;;;;;;;237.32;94.20;;;;;;;;;;5000008;28;20402;-60
2021/01/01 01:30:41;;;;;;;236.77;96.45;;;;;;;;;;5005613;28;20034;-59
2021/01/01 01:33:08;;;;;;;245.88;92.75;;;;;;;;;;5005268;28;20074;-60
2021/01/01 01:35:34;;;;;;;226.02;89.40;;;;;;;;;;5002114;28;20054;-60
2021/01/01 01:38:01;;;;;;;198.18;80.88;;;;;;;;;;5009474;28;20129;-59
2021/01/01 01:40:27;;;;;;;223.88;86.90;;;;;;;;;;5022431;28;20153;-59
2021/01/01 01:42:53;;;;;;;213.02;83.75;;;;;;;;;;5004823;28;20158;-60
2021/01/01 01:45:19;;;;;;;207.43;83.88;;;;;;;;;;5001140;28;20042;-60
2021/01/01 01:47:46;;;;;;;206.07;81.47;;;;;;;;;;5002659;28;20030;-60
2021/01/01 01:50:13;;;;;;;218.38;81.88;;;;;;;;;;5024005;28;20052;-60
2021/01/01 01:52:39;;;;;;;189.75;73.22;;;;;;;;;;5019379;28;20046;-60
2021/01/01 01:55:06;;;;;;;178.77;69.43;;;;;;;;;;5025238;28;20041;-60
2021/01/01 01:57:33;;;;;;;173.55;67.10;;;;;;;;;;5023390;28;20057;-60
2021/01/01 02:00:01;;;;;;;170.20;63.30;;;;;;;;;;5037669;28;20045;-60
2021/01/01 02:02:27;;;;;;;156.57;63.78;;;;;;;;;;5022470;28;20041;-60
2021/01/01 02:04:54;;;;;;;165.65;63.63;;;;;;;;;;5018758;28;20045;-60
2021/01/01 02:07:20;;;;;;;163.45;63.30;;;;;;;;;;5023935;28;20052;-59
2021/01/01 02:09:47;;;;;;;166.45;66.55;;;;;;;;;;5007102;28;20082;-60
2021/01/01 02:12:15;;;;;;;145.32;56.60;;;;;;;;;;5004956;28;20054;-60
2021/01/01 02:14:41;;;;;;;138.60;54.37;;;;;;;;;;5010594;28;20034;-59
2021/01/01 02:17:07;;;;;;;150.32;54.85;;;;;;;;;;5023075;28;20053;-60
2021/01/01 02:19:33;;;;;;;156.80;59.28;;;;;;;;;;5018399;28;20054;-60
2021/01/01 02:22:01;;;;;;;151.38;57.95;;;;;;;;;;5022689;28;20042;-59
2021/01/01 02:24:28;;;;;;;140.35;54.38;;;;;;;;;;5012191;28;20137;-60
2021/01/01 02:26:54;;;;;;;143.32;55.05;;;;;;;;;;5004157;28;20061;-59
2021/01/01 02:29:20;;;;;;;146.45;56.35;;;;;;;;;;5003878;28;20082;-60
2021/01/01 02:31:46;;;;;;;147.75;58.20;;;;;;;;;;5023851;28;20069;-60
2021/01/01 02:34:13;;;;;;;136.95;56.20;;;;;;;;;;5020684;28;20042;-59
2021/01/01 02:36:39;;;;;;;148.35;56.17;;;;;;;;;;5021657;28;20078;-59
2021/01/01 02:39:06;;;;;;;150.68;57.22;;;;;;;;;;5004841;28;20061;-60
2021/01/01 02:41:33;;;;;;;147.75;57.35;;;;;;;;;;5013990;28;20045;-60
2021/01/01 02:44:00;;;;;;;139.75;53.05;;;;;;;;;;5003376;28;20034;-60
2021/01/01 02:46:26;;;;;;;136.50;54.60;;;;;;;;;;5000492;28;20042;-61
2021/01/01 02:48:52;;;;;;;139.23;55.20;;;;;;;;;;5003169;28;20053;-60
2021/01/01 02:51:18;;;;;;;125.45;52.58;;;;;;;;;;5012160;28;20037;-59
2021/01/01 02:53:44;;;;;;;148.30;57.25;;;;;;;;;;5023195;28;20050;-60
2021/01/01 02:56:10;;;;;;;140.38;55.80;;;;;;;;;;5018975;28;20044;-60
2021/01/01 02:58:37;;;;;;;150.38;54.95;;;;;;;;;;5023843;28;20046;-60
2021/01/01 03:01:03;;;;;;;140.95;54.47;;;;;;;;;;5016118;28;20102;-60
2021/01/01 03:03:29;;;;;;;146.32;55.90;;;;;;;;;;5025990;28;20051;-60
2021/01/01 03:05:55;;;;;;;137.63;51.92;;;;;;;;;;5019296;28;20045;-60
2021/01/01 03:08:21;;;;;;;132.20;52.55;;;;;;;;;;5029278;28;20073;-59
2021/01/01 03:10:47;;;;;;;137.88;54.38;;;;;;;;;;5023914;28;20028;-60
2021/01/01 03:13:13;;;;;;;140.23;53.05;;;;;;;;;;5024889;28;20077;-60
2021/01/01 03:15:40;;;;;;;143.63;53.63;;;;;;;;;;5022774;28;20123;-60
2021/01/01 03:18:06;;;;;;;139.18;51.92;;;;;;;;;;5006982;28;20033;-59
2021/01/01 03:20:32;;;;;;;147.93;54.50;;;;;;;;;;5024505;28;20037;-60
2021/01/01 03:22:58;;;;;;;128.48;50.55;;;;;;;;;;5021554;28;20097;-60
2021/01/01 03:25:24;;;;;;;131.13;50.03;;;;;;;;;;5026084;28;20041;-60
2021/01/01 03:27:50;;;;;;;116.70;46.83;;;;;;;;;;5018266;28;20171;-60
2021/01/01 03:30:17;;;;;;;113.35;43.15;;;;;;;;;;5038211;28;20064;-60
2021/01/01 03:32:44;;;;;;;122.18;45.70;;;;;;;;;;5025763;28;20034;-61
2021/01/01 03:35:11;;;;;;;121.47;47.03;;;;;;;;;;5022893;28;20042;-60
2021/01/01 03:37:37;;;;;;;120.32;47.63;;;;;;;;;;5009465;28;20052;-60
2021/01/01 03:40:03;;;;;;;115.15;46.10;;;;;;;;;;5026201;28;20065;-60
2021/01/01 03:42:30;;;;;;;110.22;43.13;;;;;;;;;;5011714;28;20052;-61
2021/01/01 03:44:56;;;;;;;107.53;42.67;;;;;;;;;;5022930;28;20049;-61
2021/01/01 03:47:22;;;;;;;107.20;42.38;;;;;;;;;;5005111;28;20045;-60
2021/01/01 03:49:49;;;;;;;118.13;43.65;;;;;;;;;;5007902;28;20123;-60
2021/01/01 03:52:15;;;;;;;107.03;39.78;;;;;;;;;;5021700;28;20056;-60
2021/01/01 03:54:41;;;;;;;101.45;38.65;;;;;;;;;;5023153;28;20056;-60
2021/01/01 03:57:07;;;;;;;97.70;37.63;;;;;;;;;;5025935;28;20041;-60
2021/01/01 03:59:33;;;;;;;98.28;38.95;;;;;;;;;;5022875;28;20037;-60
2021/01/01 04:01:59;;;;;;;94.55;35.30;;;;;;;;;;5026072;28;20044;-60
2021/01/01 04:04:25;;;;;;;103.93;38.35;;;;;;;;;;5020928;28;20037;-61
2021/01/01 04:06:52;;;;;;;103.00;40.17;;;;;;;;;;5026817;28;20041;-60
2021/01/01 04:09:18;;;;;;;94.85;37.53;;;;;;;;;;5009658;28;20033;-60
2021/01/01 04:11:46;;;;;;;93.50;35.90;;;;;;;;;;5022083;28;20463;-60
2021/01/01 04:14:12;;;;;;;98.00;37.47;;;;;;;;;;5009667;28;20049;-60
2021/01/01 04:16:43;;;;;;;101.43;37.75;;;;;;;;;;5023247;28;20065;-60
2021/01/01 04:19:09;;;;;;;94.95;35.05;;;;;;;;;;5003407;28;20069;-60
2021/01/01 04:21:35;;;;;;;93.00;36.05;;;;;;;;;;5006195;28;20037;-60
2021/01/01 04:24:02;;;;;;;95.90;36.42;;;;;;;;;;5003911;28;20052;-60
2021/01/01 04:26:28;;;;;;;88.63;35.85;;;;;;;;;;5005707;28;20043;-60
2021/01/01 04:28:54;;;;;;;89.05;34.65;;;;;;;;;;5003652;28;20093;-60
2021/01/01 04:31:20;;;;;;;90.95;36.28;;;;;;;;;;5025461;28;20052;-61
2021/01/01 04:33:46;;;;;;;98.43;37.78;;;;;;;;;;5025698;28;20060;-60
2021/01/01 04:36:12;;;;;;;96.03;35.95;;;;;;;;;;5019602;28;20113;-61
2021/01/01 04:38:39;;;;;;;84.72;34.95;;;;;;;;;;5004200;28;20061;-60
2021/01/01 04:41:06;;;;;;;94.13;34.60;;;;;;;;;;5001614;28;20046;-60
2021/01/01 04:43:32;;;;;;;90.25;33.22;;;;;;;;;;5025312;28;20045;-60
2021/01/01 04:45:58;;;;;;;94.93;34.38;;;;;;;;;;5039432;28;20052;-60
2021/01/01 04:48:27;;;;;;;82.45;31.65;;;;;;;;;;5024294;28;20037;-61
2021/01/01 04:50:53;;;;;;;76.00;28.70;;;;;;;;;;5026062;28;20042;-60
2021/01/01 04:53:21;;;;;;;77.72;28.67;;;;;;;;;;5005799;28;20038;-60
2021/01/01 04:55:48;;;;;;;72.03;26.83;;;;;;;;;;5002261;28;20154;-60
2021/01/01 04:58:15;;;;;;;73.13;27.85;;;;;;;;;;5003530;28;20041;-60
2021/01/01 05:00:41;;;;;;;71.10;27.17;;;;;;;;;;5007442;28;20079;-60
2021/01/01 05:03:07;;;;;;;64.78;25.52;;;;;;;;;;5025284;28;20045;-60
2021/01/01 05:05:33;;;;;;;60.70;24.98;;;;;;;;;;5019215;28;20037;-60
2021/01/01 05:07:59;;;;;;;62.45;24.80;;;;;;;;;;5024299;28;20041;-60
2021/01/01 05:10:25;;;;;;;68.20;25.98;;;;;;;;;;5021126;28;20502;-60
2021/01/01 05:12:51;;;;;;;63.60;24.20;;;;;;;;;;5005266;28;20033;-60
2021/01/01 05:18:19;;;;;;;54.05;21.83;;;;;;;;;;5139790;27;20129;-58
2021/01/01 05:20:46;;;;;;;65.65;23.65;;;;;;;;;;5093044;28;20047;-59
2021/01/01 05:23:23;;;;;;;62.22;22.30;;;;;;;;;;5096320;28;20050;-58
2021/01/01 05:26:05;;;;;;;59.90;22.48;;;;;;;;;;5096104;28;20043;-58
2021/01/01 05:28:36;;;;;;;70.70;23.48;;;;;;;;;;5077958;28;20041;-59
2021/01/01 05:31:11;;;;;;;59.33;23.05;;;;;;;;;;5075311;28;20025;-58
2021/01/01 05:33:40;;;;;;;64.38;23.77;;;;;;;;;;5074198;28;20109;-58
2021/01/01 05:36:06;;;;;;;58.75;24.23;;;;;;;;;;5077355;28;20040;-59
2021/01/01 05:38:35;;;;;;;66.72;24.80;;;;;;;;;;5091390;28;20036;-59
2021/01/01 05:41:01;;;;;;;61.92;23.08;;;;;;;;;;5096277;28;20091;-59
2021/01/01 05:43:27;;;;;;;64.15;24.25;;;;;;;;;;5092001;28;20129;-59
2021/01/01 05:46:06;;;;;;;60.55;23.48;;;;;;;;;;5096908;28;20032;-59
2021/01/01 05:48:32;;;;;;;65.00;24.38;;;;;;;;;;5093275;28;20116;-59
2021/01/01 05:51:05;;;;;;;57.55;23.50;;;;;;;;;;5097525;28;20044;-59
2021/01/01 05:53:31;;;;;;;61.38;22.90;;;;;;;;;;5094127;28;20129;-59
2021/01/01 05:56:06;;;;;;;60.05;23.42;;;;;;;;;;5095264;28;20136;-59
2021/01/01 05:58:32;;;;;;;60.03;22.40;;;;;;;;;;5094361;28;20036;-59
2021/01/01 06:00:58;;;;;;;64.22;23.20;;;;;;;;;;5096157;28;20048;-59
2021/01/01 06:03:25;;;;;;;55.10;21.75;;;;;;;;;;5094474;28;20489;-59
2021/01/01 06:05:52;;;;;;;62.22;22.50;;;;;;;;;;5097572;28;20062;-59
2021/01/01 06:08:22;;;;;;;62.58;22.20;;;;;;;;;;5090172;28;20043;-59
2021/01/01 06:10:49;;;;;;;57.25;22.75;;;;;;;;;;5076742;28;20060;-59
2021/01/01 06:13:17;;;;;;;67.93;23.48;;;;;;;;;;5077670;28;20047;-59
2021/01/01 06:15:48;;;;;;;61.05;22.50;;;;;;;;;;5096814;28;20096;-59
2021/01/01 06:18:15;;;;;;;60.65;22.63;;;;;;;;;;5092211;28;20044;-59
2021/01/01 06:20:42;;;;;;;60.28;22.48;;;;;;;;;;5096689;28;20044;-59
2021/01/01 06:23:13;;;;;;;59.53;22.80;;;;;;;;;;5093766;28;20125;-59
2021/01/01 06:25:40;;;;;;;56.83;21.15;;;;;;;;;;5097282;28;20054;-59
2021/01/01 06:28:06;;;;;;;54.72;20.98;;;;;;;;;;5091921;28;20032;-59
2021/01/01 06:30:33;;;;;;;53.00;21.10;;;;;;;;;;5078699;28;20044;-59
2021/01/01 06:32:59;;;;;;;52.13;21.13;;;;;;;;;;5083276;28;20097;-58
2021/01/01 06:35:26;;;;;;;55.17;21.23;;;;;;;;;;5076896;28;20053;-59
2021/01/01 06:37:52;;;;;;;60.17;21.20;;;;;;;;;;5072697;28;20092;-60
2021/01/01 06:40:35;;;;;;;60.03;21.90;;;;;;;;;;5079825;28;20121;-59
2021/01/01 06:43:03;;;;;;;60.92;20.33;;;;;;;;;;5083135;28;20032;-59
2021/01/01 06:45:47;;;;;;;54.03;20.58;;;;;;;;;;5079710;28;20044;-59
2021/01/01 06:48:13;;;;;;;52.50;21.05;;;;;;;;;;5081820;28;20076;-59
2021/01/01 06:50:43;;;;;;;51.92;21.33;;;;;;;;;;5081944;28;20043;-58
2021/01/01 06:53:10;;;;;;;51.50;20.15;;;;;;;;;;5081218;28;20047;-60
2021/01/01 06:55:37;;;;;;;54.45;20.83;;;;;;;;;;5079629;28;20040;-59
2021/01/01 06:58:04;;;;;;;53.67;20.58;;;;;;;;;;5083048;28;20040;-59
2021/01/01 07:00:52;;;;;;;63.30;21.52;;;;;;;;;;5077789;28;20044;-58
2021/01/01 07:03:34;;;;;;;52.40;20.23;;;;;;;;;;5082915;28;20073;-60
2021/01/01 07:06:19;;;;;;;56.95;20.45;;;;;;;;;;5076228;28;20077;-59
2021/01/01 07:08:46;;;;;;;52.85;21.52;;;;;;;;;;5063342;28;20055;-59
2021/01/01 07:11:27;;;;;;;54.78;21.08;;;;;;;;;;5069909;28;20150;-60
2021/01/01 07:13:54;;;;;;;58.97;20.83;;;;;;;;;;5083657;28;20049;-59
2021/01/01 07:16:21;;;;;;;53.28;19.88;;;;;;;;;;5078573;28;20047;-59
2021/01/01 07:18:47;;;;;;;50.85;19.83;;;;;;;;;;5080788;28;20044;-59
2021/01/01 07:21:14;;;;;;;54.53;19.20;;;;;;;;;;5078930;28;20082;-59
2021/01/01 07:23:41;;;;;;;48.28;20.05;;;;;;;;;;5081365;28;20040;-58
2021/01/01 07:26:07;;;;;;;51.70;20.55;;;;;;;;;;5078755;28;20051;-59
2021/01/01 07:28:34;;;;;;;48.65;20.05;;;;;;;;;;5081887;28;20080;-59
2021/01/01 07:31:01;;;;;;;50.88;19.15;;;;;;;;;;5077517;28;20053;-59
2021/01/01 07:33:27;;;;;;;50.38;19.83;;;;;;;;;;5084942;28;20056;-59
2021/01/01 07:35:54;;;;;;;47.63;19.15;;;;;;;;;;5080289;28;20051;-59
2021/01/01 07:38:21;;;;;;;48.38;18.80;;;;;;;;;;5080304;28;20036;-59
2021/01/01 07:40:47;;;;;;;49.03;19.05;;;;;;;;;;5082575;28;20036;-59
2021/01/01 07:43:13;;;;;;;47.78;18.23;;;;;;;;;;5077818;28;20048;-59
2021/01/01 07:45:39;;;;;;;47.35;17.88;;;;;;;;;;5082397;28;20051;-59
2021/01/01 07:48:07;;;;;;;49.22;19.98;;;;;;;;;;5078851;28;20127;-59
2021/01/01 07:50:33;;;;;;;52.95;18.33;;;;;;;;;;5082353;28;20025;-59
2021/01/01 07:53:01;;;;;;;46.60;17.73;;;;;;;;;;5078389;28;20044;-59
2021/01/01 07:55:27;;;;;;;45.90;18.83;;;;;;;;;;5082159;28;20036;-59
2021/01/01 07:57:59;;;;;;;49.53;17.52;;;;;;;;;;5078304;28;20071;-59
2021/01/01 08:00:28;;;;;;;44.42;17.75;;;;;;;;;;5081684;28;20044;-59
2021/01/01 08:02:55;;;;;;;46.85;16.88;;;;;;;;;;5074579;28;20056;-59
2021/01/01 08:05:22;;;;;;;53.03;17.13;;;;;;;;;;5062027;28;20076;-59
2021/01/01 08:07:48;;;;;;;42.58;16.83;;;;;;;;;;5062708;28;20036;-59
2021/01/01 08:10:14;;;;;;;40.42;15.10;;;;;;;;;;5082714;28;20051;-59
2021/01/01 08:12:48;;;;;;;39.53;15.45;;;;;;;;;;5078015;28;20060;-59
2021/01/01 08:15:26;;;;;;;42.70;15.52;;;;;;;;;;5082072;28;20048;-60
2021/01/01 08:17:52;;;;;;;49.80;16.20;;;;;;;;;;5077104;28;20048;-58
2021/01/01 08:20:18;;;;;;;48.90;17.67;;;;;;;;;;5081284;28;20129;-59
2021/01/01 08:22:46;;;;;;;55.58;18.90;;;;;;;;;;5078450;28;20056;-59
2021/01/01 08:25:12;;;;;;;53.05;18.90;;;;;;;;;;5080547;28;20040;-59
2021/01/01 08:27:39;;;;;;;66.30;21.15;;;;;;;;;;5082227;28;20080;-59
2021/01/01 08:30:06;;;;;;;53.78;19.45;;;;;;;;;;5072664;28;20051;-60
2021/01/01 08:32:33;;;;;;;61.55;21.20;;;;;;;;;;5060107;28;20051;-59
2021/01/01 08:34:59;;;;;;;56.42;21.58;;;;;;;;;;5076851;28;20146;-58
2021/01/01 08:37:27;;;;;;;50.22;19.55;;;;;;;;;;5079991;28;20032;-59
2021/01/01 08:40:04;;;;;;;50.60;18.38;;;;;;;;;;5076603;28;20059;-59
2021/01/01 08:42:32;;;;;;;48.88;18.92;;;;;;;;;;5080282;28;20052;-59
2021/01/01 08:44:59;;;;;;;42.08;16.15;;;;;;;;;;5094775;28;20092;-58
2021/01/01 08:47:42;;;;;;;54.55;18.30;;;;;;;;;;5081254;28;20036;-59
2021/01/01 08:50:18;;;;;;;49.05;17.67;;;;;;;;;;5074959;28;20077;-59
2021/01/01 08:52:45;;;;;;;42.17;16.85;;;;;;;;;;5059234;28;20528;-59
2021/01/01 08:55:13;;;;;;;41.65;15.13;;;;;;;;;;5068550;28;20309;-59
2021/01/01 08:57:39;;;;;;;39.72;15.98;;;;;;;;;;5081138;28;20052;-59
2021/01/01 09:00:07;;;;;;;36.28;14.95;;;;;;;;;;5078196;28;20036;-58
2021/01/01 09:02:33;;;;;;;39.20;14.55;;;;;;;;;;5081395;28;20044;-59
2021/01/01 09:05:01;;;;;;;38.40;14.75;;;;;;;;;;5076382;28;20033;-60
2021/01/01 09:07:27;;;;;;;33.78;12.93;;;;;;;;;;5080954;28;20040;-59
2021/01/01 09:09:53;;;;;;;33.15;13.52;;;;;;;;;;5077073;28;20032;-59
2021/01/01 09:12:21;;;;;;;32.03;11.98;;;;;;;;;;5083214;28;20124;-59
2021/01/01 09:14:48;;;;;;;35.42;13.75;;;;;;;;;;5078482;28;20032;-60
2021/01/01 09:17:14;;;;;;;33.78;11.93;;;;;;;;;;5076121;28;20048;-59
2021/01/01 09:19:40;;;;;;;28.95;11.32;;;;;;;;;;5080195;28;20040;-59
2021/01/01 09:22:14;;;;;;;27.60;10.80;;;;;;;;;;5082094;28;20055;-59
2021/01/01 09:24:40;;;;;;;31.05;11.57;;;;;;;;;;5080307;28;20109;-59
2021/01/01 09:27:06;;;;;;;28.67;11.60;;;;;;;;;;5082813;28;20043;-59
2021/01/01 09:29:33;;;;;;;28.70;10.65;;;;;;;;;;5079051;28;20094;-59
2021/01/01 09:31:59;;;;;;;29.20;9.70;;;;;;;;;;5080044;28;20052;-59
2021/01/01 09:34:26;;;;;;;27.35;10.05;;;;;;;;;;5081648;28;20041;-59
2021/01/01 09:36:52;;;;;;;28.67;9.73;;;;;;;;;;5077986;28;20047;-59
2021/01/01 09:39:18;;;;;;;25.73;9.73;;;;;;;;;;5080028;28;20057;-59
2021/01/01 09:41:48;;;;;;;21.80;7.82;;;;;;;;;;5082568;28;20036;-59
2021/01/01 09:44:14;;;;;;;21.13;7.70;;;;;;;;;;5079530;28;20071;-58
2021/01/01 09:46:42;;;;;;;24.52;8.77;;;;;;;;;;5076112;28;20486;-59
2021/01/01 09:49:09;;;;;;;24.92;8.15;;;;;;;;;;5080320;28;20046;-59
2021/01/01 09:51:35;;;;;;;25.60;8.82;;;;;;;;;;5075318;28;20960;-59
2021/01/01 09:54:01;;;;;;;22.13;8.15;;;;;;;;;;5078578;28;20407;-59
2021/01/01 09:56:31;;;;;;;22.13;7.50;;;;;;;;;;5076596;28;20055;-59
2021/01/01 09:58:58;;;;;;;19.38;7.95;;;;;;;;;;5079054;28;20090;-59
2021/01/01 10:01:24;;;;;;;20.55;8.43;;;;;;;;;;5080571;28;20445;-59
2021/01/01 10:03:51;;;;;;;20.67;7.72;;;;;;;;;;5077856;28;20040;-59
2021/01/01 10:06:17;;;;;;;20.92;7.57;;;;;;;;;;5081377;28;20063;-59
2021/01/01 10:08:43;;;;;;;19.73;7.32;;;;;;;;;;5078731;28;20486;-59
2021/01/01 10:11:11;;;;;;;21.40;7.38;;;;;;;;;;5081765;28;20056;-61
2021/01/01 10:13:37;;;;;;;18.65;7.00;;;;;;;;;;5080817;28;20028;-60
2021/01/01 10:16:08;;;;;;;20.30;6.57;;;;;;;;;;5082138;28;20128;-61
2021/01/01 10:18:34;;;;;;;19.88;7.07;;;;;;;;;;5076991;28;20040;-60
2021/01/01 10:21:02;;;;;;;22.88;7.90;;;;;;;;;;5083865;28;20340;-60
2021/01/01 10:23:28;;;;;;;17.97;7.70;;;;;;;;;;5087068;28;20032;-61
2021/01/01 10:25:54;;;;;;;16.30;6.45;;;;;;;;;;5082838;28;20285;-61
2021/01/01 10:28:20;;;;;;;16.48;6.38;;;;;;;;;;5078853;28;20055;-61
2021/01/01 10:30:46;;;;;;;17.50;7.03;;;;;;;;;;5081603;28;20055;-60
2021/01/01 10:33:12;;;;;;;15.20;7.03;;;;;;;;;;5080497;28;20062;-61
2021/01/01 10:35:38;;;;;;;18.48;7.25;;;;;;;;;;5082563;28;20036;-60
2021/01/01 10:38:05;;;;;;;18.63;8.23;;;;;;;;;;5077669;28;20036;-60
2021/01/01 10:40:31;;;;;;;17.75;7.32;;;;;;;;;;5083738;28;20062;-61
2021/01/01 10:42:57;;;;;;;20.33;7.25;;;;;;;;;;5081817;28;20035;-61
2021/01/01 10:45:23;;;;;;;20.15;6.85;;;;;;;;;;5083183;28;20038;-60
2021/01/01 10:47:49;;;;;;;18.13;5.88;;;;;;;;;;5079846;28;20067;-60
2021/01/01 10:50:15;;;;;;;11.68;4.20;;;;;;;;;;5080310;27;20045;-60
2021/01/01 10:52:41;;;;;;;13.25;5.55;;;;;;;;;;5083768;28;20044;-61
2021/01/01 10:55:10;;;;;;;16.02;5.72;;;;;;;;;;5078388;28;20040;-61
2021/01/01 10:57:36;;;;;;;13.13;5.72;;;;;;;;;;5080790;28;20067;-61
2021/01/01 11:00:03;;;;;;;12.48;4.82;;;;;;;;;;5076982;28;20041;-60
2021/01/01 11:02:29;;;;;;;14.95;5.88;;;;;;;;;;5091481;28;20084;-60
2021/01/01 11:04:55;;;;;;;16.30;5.35;;;;;;;;;;5077492;28;20052;-58
2021/01/01 11:07:21;;;;;;;14.82;5.72;;;;;;;;;;5082205;28;20072;-58
2021/01/01 11:09:47;;;;;;;16.10;5.63;;;;;;;;;;5079570;28;20040;-58
2021/01/01 11:12:14;;;;;;;15.90;5.97;;;;;;;;;;5082187;28;20147;-58
2021/01/01 11:14:58;;;;;;;15.18;5.45;;;;;;;;;;5061449;28;20033;-59
2021/01/01 12:23:18;;;;;;;12.60;4.25;;;;;;;;;;5077969;28;20044;-60
2021/01/01 12:25:45;;;;;;;12.02;4.45;;;;;;;;;;5080470;28;20036;-61
2021/01/01 12:28:14;;;;;;;10.00;4.22;;;;;;;;;;5077887;28;20088;-60
2021/01/01 12:30:41;;;;;;;9.98;4.60;;;;;;;;;;5081956;28;20044;-60
2021/01/01 12:33:09;;;;;;;10.23;4.55;;;;;;;;;;5076348;28;20051;-60
2021/01/01 12:35:36;;;;;;;15.27;5.82;;;;;;;;;;5081170;28;20121;-60
2021/01/01 12:38:04;;;;;;;23.67;8.07;;;;;;;;;;5076626;28;20067;-60
2021/01/01 12:40:30;;;;;;;14.88;5.70;;;;;;;;;;5079490;28;20099;-61
2021/01/01 12:42:56;;;;;;;13.45;4.38;;;;;;;;;;5078813;28;20064;-61
2021/01/01 12:45:22;;;;;;;13.13;4.30;;;;;;;;;;5085038;28;20040;-61
2021/01/01 12:47:49;;;;;;;12.80;4.03;;;;;;;;;;5082682;28;20032;-60
2021/01/01 12:50:16;;;;;;;11.85;4.40;;;;;;;;;;5078611;28;20051;-58
2021/01/01 12:52:50;;;;;;;15.15;4.50;;;;;;;;;;5078603;28;20048;-60
2021/01/01 12:55:16;;;;;;;13.25;4.45;;;;;;;;;;5076224;28;20125;-59
2021/01/01 12:57:42;;;;;;;12.52;4.90;;;;;;;;;;5080394;28;20056;-59
2021/01/01 13:00:09;;;;;;;11.73;3.95;;;;;;;;;;5085179;28;20126;-58
2021/01/01 13:02:35;;;;;;;10.73;3.95;;;;;;;;;;5080417;28;20044;-59
2021/01/01 13:05:01;;;;;;;12.52;4.13;;;;;;;;;;5079094;28;20052;-59
2021/01/01 13:07:28;;;;;;;17.77;4.85;;;;;;;;;;5080638;28;20136;-59
2021/01/01 13:09:55;;;;;;;12.02;4.50;;;;;;;;;;5077640;28;20070;-59
2021/01/01 13:12:21;;;;;;;15.68;4.68;;;;;;;;;;5080407;28;20037;-59
2021/01/01 13:14:48;;;;;;;15.45;5.65;;;;;;;;;;5077068;28;20044;-59
2021/01/01 13:17:14;;;;;;;11.52;4.57;;;;;;;;;;5078986;28;20065;-59
2021/01/01 13:19:40;;;;;;;10.23;4.45;;;;;;;;;;5077188;28;20063;-59
2021/01/01 13:22:06;;;;;;;10.73;4.78;;;;;;;;;;5080699;28;20044;-59
2021/01/01 13:24:36;;;;;;;12.77;4.88;;;;;;;;;;5077452;28;20044;-59
2021/01/01 13:27:02;;;;;;;10.48;4.53;;;;;;;;;;5097890;28;20048;-59
2021/01/01 13:29:28;;;;;;;12.48;4.60;;;;;;;;;;5078760;28;20040;-59
2021/01/01 13:31:54;;;;;;;12.13;3.95;;;;;;;;;;5078495;28;20088;-58
2021/01/01 13:34:21;;;;;;;10.70;4.10;;;;;;;;;;5081794;28;20059;-60
2021/01/01 13:36:51;;;;;;;12.10;4.30;;;;;;;;;;5076967;28;20044;-58
2021/01/01 13:39:18;;;;;;;14.57;4.30;;;;;;;;;;5081663;28;20510;-59
2021/01/01 13:41:45;;;;;;;10.38;4.05;;;;;;;;;;5081216;28;20036;-59
2021/01/01 13:44:11;;;;;;;10.73;4.32;;;;;;;;;;5081390;28;20044;-58
2021/01/01 13:46:37;;;;;;;10.00;4.15;;;;;;;;;;5086040;28;20048;-58
2021/01/01 13:49:04;;;;;;;13.05;4.22;;;;;;;;;;5081814;28;20094;-59
2021/01/01 13:51:31;;;;;;;18.30;4.22;;;;;;;;;;5082255;28;20051;-60
2021/01/01 13:53:57;;;;;;;19.70;4.72;;;;;;;;;;5080374;28;20048;-58
2021/01/01 13:56:23;;;;;;;10.32;4.03;;;;;;;;;;5079710;28;20068;-59
2021/01/01 13:58:50;;;;;;;12.38;4.38;;;;;;;;;;5083946;28;20048;-59
2021/01/01 14:01:17;;;;;;;14.15;4.82;;;;;;;;;;5081153;28;20085;-59
2021/01/01 14:03:45;;;;;;;8.50;3.60;;;;;;;;;;5080289;28;20040;-58
2021/01/01 14:06:11;;;;;;;12.10;4.20;;;;;;;;;;5080307;28;20052;-58
2021/01/01 14:08:38;;;;;;;16.95;5.63;;;;;;;;;;5082789;28;20059;-59
2021/01/01 14:11:04;;;;;;;23.27;6.82;;;;;;;;;;5083094;28;20249;-58
2021/01/01 14:13:30;;;;;;;11.50;4.57;;;;;;;;;;5077336;28;20203;-59
2021/01/01 14:15:57;;;;;;;10.65;3.97;;;;;;;;;;5082083;28;20158;-59
2021/01/01 14:18:26;;;;;;;13.50;4.15;;;;;;;;;;5078448;28;20047;-58
2021/01/01 14:20:52;;;;;;;;;;;;;;;;;;5100177;28;20055;-58
2021/01/01 14:23:19;;;;;;;9.35;3.40;;;;;;;;;;5077718;28;19972;-59
2021/01/01 14:25:46;;;;;;;10.43;3.80;;;;;;;;;;5081024;28;20056;-60
2021/01/01 14:28:12;;;;;;;11.70;4.30;;;;;;;;;;5078673;28;20055;-59
2021/01/01 14:30:38;;;;;;;13.85;4.15;;;;;;;;;;5083113;28;20076;-59
2021/01/01 14:33:07;;;;;;;11.05;4.10;;;;;;;;;;5078623;28;20092;-60
2021/01/01 14:35:32;;;;;;;;;;;;;;;;;;5083176;28;20085;-59
2021/01/01 14:37:59;;;;;;;11.75;3.63;;;;;;;;;;5076018;28;19944;-59
2021/01/01 14:40:25;;;;;;;14.68;4.47;;;;;;;;;;5083725;28;20044;-59
2021/01/01 14:42:52;;;;;;;12.25;4.05;;;;;;;;;;5079673;28;20068;-59
2021/01/01 14:45:18;;;;;;;11.40;4.35;;;;;;;;;;5084041;28;20044;-58
2021/01/01 14:47:46;;;;;;;13.55;3.90;;;;;;;;;;5079924;28;20051;-59
2021/01/01 14:50:13;;;;;;;12.80;5.07;;;;;;;;;;5087860;28;20032;-59
2021/01/01 14:52:39;;;;;;;21.33;5.18;;;;;;;;;;5082717;28;20106;-59
2021/01/01 14:55:08;;;;;;;10.77;4.57;;;;;;;;;;5078543;28;20066;-58
2021/01/01 14:57:35;;;;;;;11.90;4.15;;;;;;;;;;5093937;28;20113;-59
2021/01/01 15:00:02;;;;;;;13.43;4.23;;;;;;;;;;5078982;28;20056;-59
2021/01/01 15:02:30;;;;;;;13.25;4.40;;;;;;;;;;5082588;28;20043;-59
2021/01/01 15:04:56;;;;;;;13.97;4.30;;;;;;;;;;5065446;28;20051;-59
2021/01/01 15:07:23;;;;;;;12.25;4.50;;;;;;;;;;5067696;28;20051;-59
2021/01/01 15:09:49;;;;;;;15.13;4.28;;;;;;;;;;5079071;28;20051;-59
2021/01/01 15:12:15;;;;;;;14.50;4.28;;;;;;;;;;5083300;28;20048;-59
2021/01/01 15:14:41;;;;;;;11.50;4.13;;;;;;;;;;5077013;28;20036;-59
2021/01/01 15:17:07;;;;;;;11.75;4.20;;;;;;;;;;5081801;28;20040;-58
2021/01/01 15:19:33;;;;;;;16.73;4.72;;;;;;;;;;5079452;28;20047;-60
2021/01/01 15:21:59;;;;;;;18.15;4.40;;;;;;;;;;5082931;28;20109;-59
2021/01/01 15:24:26;;;;;;;13.48;4.90;;;;;;;;;;5077979;28;20063;-58
2021/01/01 15:26:52;;;;;;;13.13;4.70;;;;;;;;;;5081426;28;20542;-59